createdAt,value
2016-12-15T00:00:42.823Z,1021.34
2016-12-15T00:01:52.114Z,1021.33
2016-12-15T00:03:01.413Z,1021.31
2016-12-15T00:04:11.040Z,1021.33
2016-12-15T00:05:20.343Z,1021.28
2016-12-15T00:06:29.654Z,1021.27
2016-12-15T00:07:38.660Z,1021.3
2016-12-15T00:08:47.973Z,1021.29
2016-12-15T00:09:56.653Z,1021.3
2016-12-15T00:11:05.950Z,1021.34
2016-12-15T00:12:14.924Z,1021.33
2016-12-15T00:13:24.234Z,1021.33
2016-12-15T00:14:33.221Z,1021.28
2016-12-15T00:15:42.514Z,1021.29
2016-12-15T00:16:51.830Z,1021.3
2016-12-15T00:18:00.815Z,1021.27
2016-12-15T00:19:10.116Z,1021.25
2016-12-15T00:20:19.709Z,1021.28
2016-12-15T00:21:28.704Z,1021.24
2016-12-15T00:22:37.990Z,1021.26
2016-12-15T00:23:46.679Z,1021.25
2016-12-15T00:24:55.675Z,1021.28
2016-12-15T00:26:04.959Z,1021.33
2016-12-15T00:27:13.648Z,1021.32
2016-12-15T00:28:22.344Z,1021.32
2016-12-15T00:29:31.027Z,1021.35
2016-12-15T00:30:39.704Z,1021.32
2016-12-15T00:31:48.694Z,1021.29
2016-12-15T00:32:57.703Z,1021.3
2016-12-15T00:34:06.737Z,1021.3
2016-12-15T00:35:15.732Z,1021.29
2016-12-15T00:36:25.046Z,1021.27
2016-12-15T00:37:33.741Z,1021.28
2016-12-15T00:38:42.432Z,1021.25
2016-12-15T00:39:51.117Z,1021.31
2016-12-15T00:41:00.109Z,1021.3
2016-12-15T00:42:09.105Z,1021.29
2016-12-15T00:43:18.409Z,1021.28
2016-12-15T00:44:27.398Z,1021.3
2016-12-15T00:45:36.080Z,1021.3
2016-12-15T00:46:45.072Z,1021.29
2016-12-15T00:47:54.063Z,1021.26
2016-12-15T00:49:03.053Z,1021.32
2016-12-15T00:50:12.042Z,1021.28
2016-12-15T00:51:21.638Z,1021.33
2016-12-15T00:52:30.623Z,1021.35
2016-12-15T00:53:39.912Z,1021.32
2016-12-15T00:54:48.607Z,1021.32
2016-12-15T00:55:57.898Z,1021.34
2016-12-15T00:57:06.876Z,1021.32
2016-12-15T00:58:16.166Z,1021.36
2016-12-15T00:59:25.149Z,1021.34
2016-12-15T01:00:34.434Z,1021.35
2016-12-15T01:01:43.419Z,1021.33
2016-12-15T01:02:52.412Z,1021.34
2016-12-15T01:04:01.407Z,1021.35
2016-12-15T01:05:11.320Z,1021.38
2016-12-15T01:06:20.304Z,1021.38
2016-12-15T01:07:29.308Z,1021.37
2016-12-15T01:08:37.984Z,1021.39
2016-12-15T01:09:46.662Z,1021.41
2016-12-15T01:10:55.970Z,1021.41
2016-12-15T01:12:05.270Z,1021.39
2016-12-15T01:13:14.273Z,1021.41
2016-12-15T01:14:24.490Z,1021.44
2016-12-15T01:15:33.187Z,1021.46
2016-12-15T01:16:41.879Z,1021.47
2016-12-15T01:17:51.177Z,1021.42
2016-12-15T01:19:00.464Z,1021.41
2016-12-15T01:20:09.172Z,1021.38
2016-12-15T01:21:18.480Z,1021.42
2016-12-15T01:22:27.788Z,1021.44
2016-12-15T01:23:36.770Z,1021.42
2016-12-15T01:24:45.756Z,1021.43
2016-12-15T01:25:54.495Z,1021.45
2016-12-15T01:27:03.797Z,1021.47
2016-12-15T01:28:12.473Z,1021.45
2016-12-15T01:29:21.176Z,1021.5
2016-12-15T01:30:30.463Z,1021.5
2016-12-15T01:31:39.454Z,1021.51
2016-12-15T01:32:48.442Z,1021.51
2016-12-15T01:33:57.438Z,1021.49
2016-12-15T01:35:06.735Z,1021.52
2016-12-15T01:36:15.414Z,1021.49
2016-12-15T01:37:24.408Z,1021.51
2016-12-15T01:38:33.713Z,1021.46
2016-12-15T01:39:42.400Z,1021.45
2016-12-15T01:40:51.398Z,1021.49
2016-12-15T01:42:01.006Z,1021.49
2016-12-15T01:43:09.988Z,1021.46
2016-12-15T01:44:18.653Z,1021.56
2016-12-15T01:45:27.643Z,1021.52
2016-12-15T01:46:36.339Z,1021.52
2016-12-15T01:47:45.015Z,1021.52
2016-12-15T01:48:54.308Z,1021.49
2016-12-15T01:50:03.295Z,1021.48
2016-12-15T01:51:12.598Z,1021.5
2016-12-15T01:52:21.276Z,1021.51
2016-12-15T01:53:29.957Z,1021.49
2016-12-15T01:54:39.251Z,1021.48
2016-12-15T01:55:48.230Z,1021.49
2016-12-15T01:56:57.257Z,1021.53
2016-12-15T01:58:06.855Z,1021.5
2016-12-15T01:59:16.456Z,1021.51
2016-12-15T02:00:25.776Z,1021.51
2016-12-15T02:01:35.069Z,1021.52
2016-12-15T02:02:44.064Z,1021.5
2016-12-15T02:03:52.741Z,1021.5
2016-12-15T02:05:01.428Z,1021.47
2016-12-15T02:06:10.417Z,1021.58
2016-12-15T02:07:19.391Z,1021.57
2016-12-15T02:08:28.711Z,1021.57
2016-12-15T02:09:37.386Z,1021.56
2016-12-15T02:10:46.676Z,1021.57
2016-12-15T02:11:55.979Z,1021.64
2016-12-15T02:13:04.971Z,1021.59
2016-12-15T02:14:13.963Z,1021.57
2016-12-15T02:15:22.987Z,1021.64
2016-12-15T02:16:31.668Z,1021.64
2016-12-15T02:17:40.359Z,1021.62
2016-12-15T02:18:49.973Z,1021.63
2016-12-15T02:19:58.966Z,1021.62
2016-12-15T02:21:07.661Z,1021.59
2016-12-15T02:22:16.648Z,1021.6
2016-12-15T02:23:25.641Z,1021.59
2016-12-15T02:24:34.629Z,1021.6
2016-12-15T02:25:43.932Z,1021.61
2016-12-15T02:26:52.926Z,1021.63
2016-12-15T02:28:01.913Z,1021.57
2016-12-15T02:29:10.906Z,1021.59
2016-12-15T02:30:19.894Z,1021.59
2016-12-15T02:31:28.882Z,1021.57
2016-12-15T02:32:38.187Z,1021.58
2016-12-15T02:33:47.168Z,1021.61
2016-12-15T02:34:55.860Z,1021.56
2016-12-15T02:36:04.841Z,1021.62
2016-12-15T02:37:14.142Z,1021.62
2016-12-15T02:38:23.447Z,1021.57
2016-12-15T02:39:32.752Z,1021.56
2016-12-15T02:40:41.741Z,1021.57
2016-12-15T02:41:50.431Z,1021.56
2016-12-15T02:42:59.415Z,1021.55
2016-12-15T02:44:08.395Z,1021.55
2016-12-15T02:45:17.705Z,1021.51
2016-12-15T02:46:26.383Z,1021.53
2016-12-15T02:47:35.080Z,1021.49
2016-12-15T02:48:44.378Z,1021.49
2016-12-15T02:49:53.055Z,1021.5
2016-12-15T02:51:02.039Z,1021.48
2016-12-15T02:52:11.040Z,1021.48
2016-12-15T02:53:20.039Z,1021.45
2016-12-15T02:54:29.021Z,1021.42
2016-12-15T02:55:37.703Z,1021.41
2016-12-15T02:56:47.006Z,1021.43
2016-12-15T02:57:56.298Z,1021.45
2016-12-15T02:59:04.972Z,1021.39
2016-12-15T03:00:13.963Z,1021.42
2016-12-15T03:01:22.650Z,1021.44
2016-12-15T03:02:31.640Z,1021.43
2016-12-15T03:03:40.623Z,1021.38
2016-12-15T03:04:49.610Z,1021.42
2016-12-15T03:05:58.589Z,1021.44
2016-12-15T03:07:07.884Z,1021.38
2016-12-15T03:08:16.876Z,1021.42
2016-12-15T03:09:26.178Z,1021.42
2016-12-15T03:10:35.178Z,1021.43
2016-12-15T03:11:44.176Z,1021.45
2016-12-15T03:12:53.186Z,1021.39
2016-12-15T03:14:01.895Z,1021.43
2016-12-15T03:15:10.587Z,1021.41
2016-12-15T03:16:20.200Z,1021.41
2016-12-15T03:17:29.486Z,1021.39
2016-12-15T03:18:38.157Z,1021.44
2016-12-15T03:19:46.838Z,1021.43
2016-12-15T03:20:55.822Z,1021.42
2016-12-15T03:22:05.150Z,1021.38
2016-12-15T03:23:14.132Z,1021.42
2016-12-15T03:24:23.434Z,1021.43
2016-12-15T03:25:32.729Z,1021.46
2016-12-15T03:26:41.724Z,1021.47
2016-12-15T03:27:50.706Z,1021.44
2016-12-15T03:28:59.695Z,1021.43
2016-12-15T03:30:08.696Z,1021.44
2016-12-15T03:31:17.988Z,1021.39
2016-12-15T03:32:26.667Z,1021.42
2016-12-15T03:33:35.975Z,1021.46
2016-12-15T03:34:44.655Z,1021.42
2016-12-15T03:35:53.958Z,1021.44
2016-12-15T03:37:02.644Z,1021.41
2016-12-15T03:38:11.945Z,1021.37
2016-12-15T03:39:20.637Z,1021.36
2016-12-15T03:40:29.923Z,1021.37
2016-12-15T03:41:39.287Z,1021.36
2016-12-15T03:42:47.978Z,1021.34
2016-12-15T03:43:56.971Z,1021.34
2016-12-15T03:45:06.264Z,1021.38
2016-12-15T03:46:14.949Z,1021.33
2016-12-15T03:47:23.640Z,1021.37
2016-12-15T03:48:32.314Z,1021.29
2016-12-15T03:49:41.303Z,1021.33
2016-12-15T03:50:50.600Z,1021.26
2016-12-15T03:51:59.588Z,1021.3
2016-12-15T03:53:08.583Z,1021.3
2016-12-15T03:54:17.571Z,1021.33
2016-12-15T03:55:26.255Z,1021.28
2016-12-15T03:56:35.239Z,1021.3
2016-12-15T03:57:44.228Z,1021.28
2016-12-15T03:58:53.516Z,1021.26
2016-12-15T04:00:02.191Z,1021.28
2016-12-15T04:01:11.182Z,1021.27
2016-12-15T04:02:19.885Z,1021.26
2016-12-15T04:03:28.567Z,1021.26
2016-12-15T04:04:37.861Z,1021.28
2016-12-15T04:05:46.855Z,1021.25
2016-12-15T04:06:55.571Z,1021.26
2016-12-15T04:08:04.260Z,1021.28
2016-12-15T04:09:13.259Z,1021.26
2016-12-15T04:10:21.950Z,1021.3
2016-12-15T04:11:30.943Z,1021.26
2016-12-15T04:12:39.930Z,1021.28
2016-12-15T04:13:48.613Z,1021.31
2016-12-15T04:14:57.615Z,1021.25
2016-12-15T04:16:06.901Z,1021.26
2016-12-15T04:17:16.192Z,1021.26
2016-12-15T04:18:25.203Z,1021.3
2016-12-15T04:19:34.486Z,1021.34
2016-12-15T04:20:43.473Z,1021.29
2016-12-15T04:21:52.771Z,1021.32
2016-12-15T04:23:01.451Z,1021.32
2016-12-15T04:24:10.440Z,1021.33
2016-12-15T04:25:19.756Z,1021.33
2016-12-15T04:26:28.760Z,1021.38
2016-12-15T04:27:37.735Z,1021.36
2016-12-15T04:28:46.713Z,1021.36
2016-12-15T04:29:55.699Z,1021.39
2016-12-15T04:31:04.688Z,1021.41
2016-12-15T04:32:14.291Z,1021.4
2016-12-15T04:33:22.983Z,1021.41
2016-12-15T04:34:31.659Z,1021.42
2016-12-15T04:35:40.343Z,1021.4
2016-12-15T04:36:49.014Z,1021.39
2016-12-15T04:37:57.697Z,1021.35
2016-12-15T04:39:06.378Z,1021.35
2016-12-15T04:40:15.366Z,1021.4
2016-12-15T04:41:24.962Z,1021.36
2016-12-15T04:42:33.642Z,1021.36
2016-12-15T04:43:42.636Z,1021.29
2016-12-15T04:44:51.620Z,1021.37
2016-12-15T04:46:00.309Z,1021.38
2016-12-15T04:47:09.292Z,1021.39
2016-12-15T04:48:18.885Z,1021.35
2016-12-15T04:49:27.881Z,1021.39
2016-12-15T04:50:36.865Z,1021.41
2016-12-15T04:51:45.852Z,1021.43
2016-12-15T04:52:54.837Z,1021.35
2016-12-15T04:54:04.125Z,1021.37
2016-12-15T04:55:13.726Z,1021.37
2016-12-15T04:56:22.428Z,1021.37
2016-12-15T04:57:31.723Z,1021.42
2016-12-15T04:58:40.704Z,1021.38
2016-12-15T04:59:49.997Z,1021.39
2016-12-15T05:00:58.689Z,1021.36
2016-12-15T05:02:07.666Z,1021.41
2016-12-15T05:03:16.695Z,1021.39
2016-12-15T05:04:25.682Z,1021.41
2016-12-15T05:05:34.667Z,1021.42
2016-12-15T05:06:43.979Z,1021.4
2016-12-15T05:07:53.263Z,1021.38
2016-12-15T05:09:02.251Z,1021.4
2016-12-15T05:10:10.936Z,1021.43
2016-12-15T05:11:20.533Z,1021.43
2016-12-15T05:12:29.821Z,1021.49
2016-12-15T05:13:39.122Z,1021.46
2016-12-15T05:14:48.421Z,1021.46
2016-12-15T05:15:57.107Z,1021.48
2016-12-15T05:17:06.095Z,1021.53
2016-12-15T05:18:15.700Z,1021.49
2016-12-15T05:19:25.003Z,1021.48
2016-12-15T05:20:33.701Z,1021.43
2016-12-15T05:21:42.680Z,1021.5
2016-12-15T05:22:51.673Z,1021.44
2016-12-15T05:24:00.669Z,1021.49
2016-12-15T05:25:09.350Z,1021.47
2016-12-15T05:26:18.030Z,1021.49
2016-12-15T05:27:27.029Z,1021.57
2016-12-15T05:28:36.325Z,1021.56
2016-12-15T05:29:45.910Z,1021.58
2016-12-15T05:30:54.896Z,1021.61
2016-12-15T05:32:04.246Z,1021.62
2016-12-15T05:33:13.551Z,1021.61
2016-12-15T05:34:22.237Z,1021.58
2016-12-15T05:35:30.921Z,1021.61
2016-12-15T05:36:39.604Z,1021.57
2016-12-15T05:37:49.213Z,1021.56
2016-12-15T05:38:58.214Z,1021.57
2016-12-15T05:40:07.201Z,1021.56
2016-12-15T05:41:15.883Z,1021.55
2016-12-15T05:42:24.870Z,1021.56
2016-12-15T05:43:33.581Z,1021.59
2016-12-15T05:44:42.256Z,1021.58
2016-12-15T05:45:50.950Z,1021.62
2016-12-15T05:46:59.943Z,1021.59
2016-12-15T05:48:08.926Z,1021.57
2016-12-15T05:49:17.905Z,1021.54
2016-12-15T05:50:26.901Z,1021.53
2016-12-15T05:51:36.196Z,1021.49
2016-12-15T05:52:44.878Z,1021.51
2016-12-15T05:56:26.235Z,1021.54
2016-12-15T05:57:35.236Z,1021.51
2016-12-15T06:01:16.284Z,1021.52
2016-12-15T06:04:57.957Z,1021.59
2016-12-15T06:08:38.999Z,1021.66
2016-12-15T06:12:20.360Z,1021.66
2016-12-15T06:22:19.615Z,1021.61
2016-12-15T06:23:28.597Z,1021.59
2016-12-15T06:24:37.286Z,1021.6
2016-12-15T06:25:46.267Z,1021.58
2016-12-15T06:26:55.266Z,1021.61
2016-12-15T06:28:04.262Z,1021.57
2016-12-15T06:29:13.571Z,1021.61
2016-12-15T06:30:22.561Z,1021.62
2016-12-15T06:31:31.250Z,1021.59
2016-12-15T06:32:40.243Z,1021.61
2016-12-15T06:33:49.229Z,1021.58
2016-12-15T06:34:58.231Z,1021.59
2016-12-15T06:36:07.241Z,1021.59
2016-12-15T06:37:15.923Z,1021.56
2016-12-15T06:38:24.618Z,1021.57
2016-12-15T06:39:34.535Z,1021.54
2016-12-15T06:40:43.224Z,1021.54
2016-12-15T06:41:52.198Z,1021.6
2016-12-15T06:43:01.181Z,1021.59
2016-12-15T06:44:10.477Z,1021.59
2016-12-15T06:45:19.474Z,1021.59
2016-12-15T06:46:28.157Z,1021.57
2016-12-15T06:47:36.840Z,1021.59
2016-12-15T06:48:45.511Z,1021.61
2016-12-15T06:49:54.527Z,1021.6
2016-12-15T06:51:03.529Z,1021.6
2016-12-15T06:52:12.832Z,1021.58
2016-12-15T06:53:22.124Z,1021.61
2016-12-15T06:54:30.820Z,1021.57
2016-12-15T06:55:39.812Z,1021.62
2016-12-15T06:56:48.503Z,1021.58
2016-12-15T06:57:57.796Z,1021.63
2016-12-15T06:59:08.086Z,1021.63
2016-12-15T07:00:16.785Z,1021.57
2016-12-15T07:01:25.790Z,1021.62
2016-12-15T07:02:34.487Z,1021.6
2016-12-15T07:04:15.702Z,1021.61
2016-12-15T07:05:24.694Z,1021.68
2016-12-15T07:06:33.396Z,1021.65
2016-12-15T07:07:43.006Z,1021.66
2016-12-15T07:08:51.689Z,1021.64
2016-12-15T07:10:00.693Z,1021.69
2016-12-15T07:11:10.597Z,1021.65
2016-12-15T07:12:19.321Z,1021.73
2016-12-15T07:13:28.020Z,1021.72
2016-12-15T07:14:36.796Z,1021.7
2016-12-15T07:15:46.138Z,1021.74
2016-12-15T07:16:54.864Z,1021.75
2016-12-15T07:18:03.555Z,1021.74
2016-12-15T07:19:12.272Z,1021.69
2016-12-15T07:20:21.252Z,1021.74
2016-12-15T07:21:30.265Z,1021.74
2016-12-15T07:22:39.266Z,1021.74
2016-12-15T07:23:47.985Z,1021.75
2016-12-15T07:24:57.291Z,1021.74
2016-12-15T07:26:06.322Z,1021.77
2016-12-15T07:27:15.800Z,1021.74
2016-12-15T07:28:24.481Z,1021.69
2016-12-15T07:29:33.468Z,1021.76
2016-12-15T07:30:42.157Z,1021.73
2016-12-15T07:31:50.855Z,1021.73
2016-12-15T07:33:00.026Z,1021.75
2016-12-15T07:34:08.714Z,1021.75
2016-12-15T07:35:18.010Z,1021.76
2016-12-15T07:36:27.622Z,1021.74
2016-12-15T07:37:36.309Z,1021.76
2016-12-15T07:38:45.922Z,1021.78
2016-12-15T07:39:54.909Z,1021.76
2016-12-15T07:41:03.901Z,1021.78
2016-12-15T07:42:12.589Z,1021.76
2016-12-15T07:43:21.279Z,1021.76
2016-12-15T07:44:30.280Z,1021.75
2016-12-15T07:45:39.274Z,1021.77
2016-12-15T07:46:48.265Z,1021.73
2016-12-15T07:47:57.606Z,1021.76
2016-12-15T07:49:06.618Z,1021.76
2016-12-15T07:50:15.668Z,1021.75
2016-12-15T07:51:25.273Z,1021.78
2016-12-15T07:52:34.278Z,1021.78
2016-12-15T07:53:43.305Z,1021.75
2016-12-15T07:54:52.642Z,1021.69
2016-12-15T07:56:01.390Z,1021.74
2016-12-15T07:57:11.016Z,1021.75
2016-12-15T07:58:20.321Z,1021.71
2016-12-15T07:59:29.014Z,1021.72
2016-12-15T08:00:38.361Z,1021.69
2016-12-15T08:01:47.124Z,1021.73
2016-12-15T08:02:56.174Z,1021.66
2016-12-15T08:04:04.894Z,1021.69
2016-12-15T08:05:13.906Z,1021.66
2016-12-15T08:06:22.900Z,1021.64
2016-12-15T08:07:32.230Z,1021.62
2016-12-15T08:08:41.548Z,1021.65
2016-12-15T08:09:50.928Z,1021.66
2016-12-15T08:11:00.236Z,1021.6
2016-12-15T08:12:09.273Z,1021.7
2016-12-15T08:13:18.285Z,1021.62
2016-12-15T08:14:27.280Z,1021.64
2016-12-15T08:15:35.987Z,1021.65
2016-12-15T08:16:45.061Z,1021.63
2016-12-15T08:17:54.063Z,1021.67
2016-12-15T08:19:03.088Z,1021.66
2016-12-15T08:20:12.102Z,1021.62
2016-12-15T08:21:21.720Z,1021.69
2016-12-15T08:22:30.745Z,1021.63
2016-12-15T08:23:39.446Z,1021.62
2016-12-15T08:24:48.471Z,1021.65
2016-12-15T08:25:57.507Z,1021.61
2016-12-15T08:27:06.610Z,1021.66
2016-12-15T08:28:15.609Z,1021.67
2016-12-15T08:29:24.914Z,1021.66
2016-12-15T08:30:33.640Z,1021.67
2016-12-15T08:31:42.365Z,1021.66
2016-12-15T08:32:51.352Z,1021.65
2016-12-15T08:34:00.369Z,1021.7
2016-12-15T08:35:09.999Z,1021.7
2016-12-15T08:36:19.355Z,1021.7
2016-12-15T08:37:28.048Z,1021.69
2016-12-15T08:38:37.369Z,1021.68
2016-12-15T08:39:46.382Z,1021.69
2016-12-15T08:40:55.389Z,1021.67
2016-12-15T08:42:04.746Z,1021.7
2016-12-15T08:43:13.742Z,1021.73
2016-12-15T08:44:22.759Z,1021.71
2016-12-15T08:45:32.070Z,1021.7
2016-12-15T08:46:41.377Z,1021.7
2016-12-15T08:47:50.735Z,1021.69
2016-12-15T08:48:59.751Z,1021.76
2016-12-15T08:50:08.483Z,1021.71
2016-12-15T08:51:17.489Z,1021.75
2016-12-15T08:52:26.844Z,1021.72
2016-12-15T08:53:36.075Z,1021.74
2016-12-15T08:54:45.105Z,1021.73
2016-12-15T08:55:53.792Z,1021.73
2016-12-15T08:57:02.815Z,1021.78
2016-12-15T08:58:12.460Z,1021.74
2016-12-15T08:59:21.150Z,1021.75
2016-12-15T09:00:30.156Z,1021.73
2016-12-15T09:01:39.200Z,1021.73
2016-12-15T09:02:48.533Z,1021.74
2016-12-15T09:03:57.824Z,1021.71
2016-12-15T09:05:06.817Z,1021.73
2016-12-15T09:06:15.809Z,1021.75
2016-12-15T09:07:24.502Z,1021.75
2016-12-15T09:08:33.504Z,1021.72
2016-12-15T09:09:42.505Z,1021.76
2016-12-15T09:10:51.698Z,1021.76
2016-12-15T09:12:00.411Z,1021.77
2016-12-15T09:13:09.744Z,1021.84
2016-12-15T09:14:18.763Z,1021.8
2016-12-15T09:15:27.480Z,1021.81
2016-12-15T09:16:36.817Z,1021.79
2016-12-15T09:17:45.837Z,1021.78
2016-12-15T09:18:54.844Z,1021.73
2016-12-15T09:20:03.550Z,1021.83
2016-12-15T09:21:12.256Z,1021.77
2016-12-15T09:22:21.239Z,1021.73
2016-12-15T09:23:30.231Z,1021.76
2016-12-15T09:24:39.534Z,1021.78
2016-12-15T09:25:48.845Z,1021.77
2016-12-15T09:26:58.148Z,1021.78
2016-12-15T09:28:07.296Z,1021.83
2016-12-15T09:29:16.280Z,1021.8
2016-12-15T09:30:25.570Z,1021.78
2016-12-15T09:31:34.568Z,1021.77
2016-12-15T09:32:43.895Z,1021.84
2016-12-15T09:33:52.876Z,1021.8
2016-12-15T09:35:02.180Z,1021.8
2016-12-15T09:36:11.501Z,1021.8
2016-12-15T09:37:20.556Z,1021.75
2016-12-15T09:38:29.569Z,1021.77
2016-12-15T09:39:38.645Z,1021.72
2016-12-15T09:40:47.646Z,1021.73
2016-12-15T09:41:56.648Z,1021.71
2016-12-15T09:43:05.654Z,1021.77
2016-12-15T09:44:14.652Z,1021.72
2016-12-15T09:45:23.798Z,1021.72
2016-12-15T09:46:32.501Z,1021.71
2016-12-15T09:47:41.498Z,1021.69
2016-12-15T09:48:50.511Z,1021.73
2016-12-15T09:49:59.523Z,1021.72
2016-12-15T09:51:08.978Z,1021.71
2016-12-15T09:52:17.668Z,1021.74
2016-12-15T09:53:26.362Z,1021.7
2016-12-15T09:54:35.049Z,1021.7
2016-12-15T09:55:44.364Z,1021.71
2016-12-15T09:56:53.097Z,1021.69
2016-12-15T09:58:02.102Z,1021.74
2016-12-15T09:59:11.420Z,1021.71
2016-12-15T10:00:20.407Z,1021.72
2016-12-15T10:01:30.038Z,1021.73
2016-12-15T10:02:39.034Z,1021.71
2016-12-15T10:03:47.727Z,1021.7
2016-12-15T10:04:56.727Z,1021.7
2016-12-15T10:06:05.719Z,1021.68
2016-12-15T10:07:14.726Z,1021.69
2016-12-15T10:08:23.724Z,1021.69
2016-12-15T10:09:32.404Z,1021.68
2016-12-15T10:10:41.404Z,1021.66
2016-12-15T10:11:50.163Z,1021.63
2016-12-15T10:12:59.151Z,1021.64
2016-12-15T10:14:08.482Z,1021.6
2016-12-15T10:15:17.469Z,1021.64
2016-12-15T10:16:26.480Z,1021.62
2016-12-15T10:17:35.471Z,1021.65
2016-12-15T10:18:44.780Z,1021.63
2016-12-15T10:19:53.837Z,1021.63
2016-12-15T10:21:03.148Z,1021.7
2016-12-15T10:22:12.145Z,1021.64
2016-12-15T10:23:21.159Z,1021.63
2016-12-15T10:24:30.476Z,1021.65
2016-12-15T10:25:40.461Z,1021.59
2016-12-15T10:26:49.483Z,1021.55
2016-12-15T10:27:58.513Z,1021.6
2016-12-15T10:29:07.853Z,1021.65
2016-12-15T10:30:17.156Z,1021.58
2016-12-15T10:31:26.167Z,1021.53
2016-12-15T10:32:35.165Z,1021.55
2016-12-15T10:33:44.777Z,1021.52
2016-12-15T10:34:54.080Z,1021.57
2016-12-15T10:36:02.784Z,1021.53
2016-12-15T10:37:12.121Z,1021.52
2016-12-15T10:38:21.736Z,1021.51
2016-12-15T10:39:30.422Z,1021.49
2016-12-15T10:40:39.746Z,1021.5
2016-12-15T10:41:48.782Z,1021.48
2016-12-15T10:42:58.271Z,1021.4
2016-12-15T10:44:07.898Z,1021.49
2016-12-15T10:45:16.604Z,1021.49
2016-12-15T10:46:26.541Z,1021.47
2016-12-15T10:47:35.538Z,1021.49
2016-12-15T10:48:45.659Z,1021.47
2016-12-15T10:49:54.666Z,1021.44
2016-12-15T10:51:03.681Z,1021.44
2016-12-15T10:52:12.685Z,1021.42
2016-12-15T10:53:21.688Z,1021.45
2016-12-15T10:54:30.545Z,1021.4
2016-12-15T10:55:39.542Z,1021.45
2016-12-15T10:56:48.841Z,1021.4
2016-12-15T10:57:57.525Z,1021.41
2016-12-15T10:59:06.526Z,1021.39
2016-12-15T11:00:15.828Z,1021.36
2016-12-15T11:01:25.186Z,1021.4
2016-12-15T11:02:34.823Z,1021.36
2016-12-15T11:03:43.811Z,1021.36
2016-12-15T11:04:52.879Z,1021.39
2016-12-15T11:06:02.204Z,1021.37
2016-12-15T11:07:11.500Z,1021.4
2016-12-15T11:08:20.827Z,1021.37
2016-12-15T11:09:29.524Z,1021.37
2016-12-15T11:10:38.840Z,1021.35
2016-12-15T11:11:47.840Z,1021.31
2016-12-15T11:12:56.852Z,1021.31
2016-12-15T11:14:05.877Z,1021.32
2016-12-15T11:15:14.886Z,1021.31
2016-12-15T11:16:23.899Z,1021.29
2016-12-15T11:17:32.886Z,1021.28
2016-12-15T11:18:41.575Z,1021.29
2016-12-15T11:19:50.598Z,1021.28
2016-12-15T11:20:59.280Z,1021.22
2016-12-15T11:22:08.608Z,1021.23
2016-12-15T11:23:17.354Z,1021.22
2016-12-15T11:24:26.353Z,1021.22
2016-12-15T11:25:35.360Z,1021.16
2016-12-15T11:26:44.090Z,1021.14
2016-12-15T11:27:53.074Z,1021.16
2016-12-15T11:29:02.097Z,1021.16
2016-12-15T11:30:11.105Z,1021.14
2016-12-15T11:31:20.121Z,1021.12
2016-12-15T11:32:29.463Z,1021.1
2016-12-15T11:33:38.445Z,1021.12
2016-12-15T11:34:47.810Z,1021.14
2016-12-15T11:35:57.113Z,1021.11
2016-12-15T11:37:06.423Z,1021.09
2016-12-15T11:38:15.740Z,1021.1
2016-12-15T11:39:24.736Z,1021.09
2016-12-15T11:40:34.703Z,1021.04
2016-12-15T11:41:44.339Z,1021.04
2016-12-15T11:42:53.659Z,1021.04
2016-12-15T11:44:02.657Z,1021.03
2016-12-15T11:45:11.643Z,1021.04
2016-12-15T11:46:20.794Z,1021.05
2016-12-15T11:47:29.488Z,1021.01
2016-12-15T11:48:38.190Z,1021.01
2016-12-15T11:49:47.197Z,1021.03
2016-12-15T11:50:56.190Z,1020.99
2016-12-15T11:52:04.877Z,1020.98
2016-12-15T11:53:14.221Z,1020.96
2016-12-15T11:54:23.206Z,1020.94
2016-12-15T11:55:32.243Z,1020.93
2016-12-15T11:56:40.926Z,1020.92
2016-12-15T11:57:49.629Z,1020.92
2016-12-15T11:58:58.318Z,1020.9
2016-12-15T12:00:07.925Z,1020.84
2016-12-15T12:01:16.609Z,1020.84
2016-12-15T12:02:25.325Z,1020.85
2016-12-15T12:03:34.323Z,1020.81
2016-12-15T12:04:43.336Z,1020.89
2016-12-15T12:05:52.032Z,1020.88
2016-12-15T12:07:00.721Z,1020.88
2016-12-15T12:08:10.040Z,1020.83
2016-12-15T12:09:19.680Z,1020.8
2016-12-15T12:10:28.678Z,1020.78
2016-12-15T12:11:37.671Z,1020.76
2016-12-15T12:12:46.366Z,1020.78
2016-12-15T12:13:55.371Z,1020.72
2016-12-15T12:15:04.421Z,1020.75
2016-12-15T12:16:13.725Z,1020.77
2016-12-15T12:17:22.732Z,1020.73
2016-12-15T12:18:31.433Z,1020.7
2016-12-15T12:19:41.061Z,1020.72
2016-12-15T12:20:50.407Z,1020.67
2016-12-15T12:21:59.398Z,1020.7
2016-12-15T12:23:08.734Z,1020.66
2016-12-15T12:24:18.028Z,1020.67
2016-12-15T12:25:27.016Z,1020.65
2016-12-15T12:26:35.851Z,1020.66
2016-12-15T12:27:45.163Z,1020.66
2016-12-15T12:28:53.860Z,1020.66
2016-12-15T12:30:02.881Z,1020.64
2016-12-15T12:31:11.877Z,1020.65
2016-12-15T12:32:20.873Z,1020.66
2016-12-15T12:33:29.657Z,1020.64
2016-12-15T12:34:39.267Z,1020.6
2016-12-15T12:35:48.270Z,1020.61
2016-12-15T12:36:57.577Z,1020.61
2016-12-15T12:38:06.264Z,1020.62
2016-12-15T12:39:15.001Z,1020.6
2016-12-15T12:40:24.324Z,1020.62
2016-12-15T12:41:33.348Z,1020.59
2016-12-15T12:42:42.344Z,1020.58
2016-12-15T12:43:51.813Z,1020.56
2016-12-15T12:45:01.133Z,1020.58
2016-12-15T12:46:10.121Z,1020.56
2016-12-15T12:47:18.845Z,1020.65
2016-12-15T12:48:27.843Z,1020.52
2016-12-15T12:49:37.198Z,1020.47
2016-12-15T12:50:45.877Z,1020.53
2016-12-15T12:51:54.564Z,1020.48
2016-12-15T12:53:03.559Z,1020.56
2016-12-15T12:54:12.533Z,1020.56
2016-12-15T12:55:21.244Z,1020.53
2016-12-15T12:56:29.919Z,1020.49
2016-12-15T12:57:38.901Z,1020.45
2016-12-15T12:58:47.604Z,1020.49
2016-12-15T12:59:57.203Z,1020.5
2016-12-15T13:01:06.038Z,1020.51
2016-12-15T13:02:15.044Z,1020.48
2016-12-15T13:03:24.047Z,1020.45
2016-12-15T13:04:33.093Z,1020.49
2016-12-15T13:05:41.812Z,1020.45
2016-12-15T13:06:51.217Z,1020.43
2016-12-15T13:08:00.257Z,1020.45
2016-12-15T13:09:09.258Z,1020.43
2016-12-15T13:10:18.555Z,1020.44
2016-12-15T13:11:27.863Z,1020.46
2016-12-15T13:12:37.212Z,1020.46
2016-12-15T13:13:45.928Z,1020.44
2016-12-15T13:14:55.222Z,1020.42
2016-12-15T13:16:03.915Z,1020.37
2016-12-15T13:17:12.607Z,1020.35
2016-12-15T13:18:21.920Z,1020.35
2016-12-15T13:19:30.601Z,1020.4
2016-12-15T13:20:39.588Z,1020.36
2016-12-15T13:21:48.581Z,1020.27
2016-12-15T13:22:57.275Z,1020.34
2016-12-15T13:24:06.637Z,1020.32
2016-12-15T13:25:15.660Z,1020.35
2016-12-15T13:26:24.985Z,1020.3
2016-12-15T13:27:34.617Z,1020.3
2016-12-15T13:28:43.359Z,1020.3
2016-12-15T13:29:52.072Z,1020.3
2016-12-15T13:31:01.075Z,1020.29
2016-12-15T13:32:10.094Z,1020.34
2016-12-15T13:33:19.411Z,1020.33
2016-12-15T13:34:28.416Z,1020.35
2016-12-15T13:35:37.595Z,1020.37
2016-12-15T13:36:46.611Z,1020.34
2016-12-15T13:37:55.640Z,1020.32
2016-12-15T13:39:04.660Z,1020.3
2016-12-15T13:40:13.996Z,1020.34
2016-12-15T13:41:22.995Z,1020.38
2016-12-15T13:42:31.703Z,1020.37
2016-12-15T13:43:40.394Z,1020.35
2016-12-15T13:44:49.447Z,1020.36
2016-12-15T13:45:58.751Z,1020.33
2016-12-15T13:47:07.772Z,1020.35
2016-12-15T13:48:16.481Z,1020.39
2016-12-15T13:49:25.181Z,1020.37
2016-12-15T13:50:34.171Z,1020.4
2016-12-15T13:51:43.456Z,1020.4
2016-12-15T13:52:52.447Z,1020.35
2016-12-15T13:54:01.139Z,1020.34
2016-12-15T13:55:10.161Z,1020.35
2016-12-15T13:56:18.875Z,1020.36
2016-12-15T13:57:27.905Z,1020.32
2016-12-15T13:58:36.618Z,1020.3
2016-12-15T13:59:45.622Z,1020.31
2016-12-15T14:00:54.394Z,1020.32
2016-12-15T14:02:03.717Z,1020.34
2016-12-15T14:03:12.696Z,1020.36
2016-12-15T14:04:21.685Z,1020.32
2016-12-15T14:05:31.300Z,1020.29
2016-12-15T14:06:39.978Z,1020.31
2016-12-15T14:07:48.972Z,1020.27
2016-12-15T14:08:57.663Z,1020.29
2016-12-15T14:12:39.192Z,1020.26
2016-12-15T14:13:48.194Z,1020.21
2016-12-15T14:14:57.185Z,1020.16
2016-12-15T14:16:06.205Z,1020.19
2016-12-15T14:17:14.899Z,1020.19
2016-12-15T14:18:24.344Z,1020.1
2016-12-15T14:19:33.018Z,1020.12
2016-12-15T14:23:14.081Z,1020.24
2016-12-15T14:24:23.411Z,1020.23
2016-12-15T14:25:32.725Z,1020.21